Time;durP1;ratioP1;P1;durP2;ratioP2;P2;SDS_P1;SDS_P2;PMS_P1;PMS_P2;Temp;Humidity;BMP_temperature;BMP_pressure;BME280_temperature;BME280_humidity;BME280_pressure;Samples;Min_cycle;Max_cycle;Signal;HPM_P1;HPM_P2
2021/06/12 00:00:56;;;;;;;;;;;15.70;99.90;;;;;;5097542;28;19912;-71
2021/06/12 00:03:21;;;;;;;;;;;15.70;99.90;;;;;;5091093;28;19912;-71
2021/06/12 00:05:47;;;;;;;;;;;15.60;99.90;;;;;;5089928;28;19908;-71
2021/06/12 00:08:12;;;;;;;;;;;15.50;99.90;;;;;;5086872;28;19912;-72
2021/06/12 00:10:38;;;;;;;;;;;15.40;99.90;;;;;;5091236;28;19908;-71
2021/06/12 00:13:04;;;;;;;;;;;15.30;99.90;;;;;;5086987;28;20315;-71
2021/06/12 00:15:30;;;;;;;;;;;15.30;99.90;;;;;;5081952;28;19908;-71
2021/06/12 00:17:56;;;;;;;;;;;15.20;99.90;;;;;;5074238;28;19908;-71
2021/06/12 00:20:23;;;;;;;;;;;15.20;99.90;;;;;;5076601;28;19926;-71
2021/06/12 00:22:49;;;;;;;;;;;15.30;99.90;;;;;;5074629;28;19923;-72
2021/06/12 00:25:16;;;;;;;;;;;15.30;99.90;;;;;;5074908;28;19908;-71
2021/06/12 00:27:41;;;;;;;;;;;15.20;99.90;;;;;;5076335;28;19908;-72
2021/06/12 00:30:08;;;;;;;;;;;15.20;99.90;;;;;;5074723;28;19909;-71
2021/06/12 00:32:33;;;;;;;;;;;15.20;99.90;;;;;;5074816;28;20281;-71
2021/06/12 00:34:59;;;;;;;;;;;15.10;99.90;;;;;;5074689;28;19912;-71
2021/06/12 00:37:24;;;;;;;;;;;15.10;99.90;;;;;;5076098;28;20395;-71
2021/06/12 00:39:50;;;;;;;;;;;15.10;99.90;;;;;;5076506;28;19920;-71
2021/06/12 00:42:15;;;;;;;;;;;15.00;99.90;;;;;;5073284;28;19919;-72
2021/06/12 00:44:41;;;;;;;;;;;15.00;99.90;;;;;;5074617;28;19912;-71
2021/06/12 00:47:07;;;;;;;;;;;14.90;99.90;;;;;;5073688;28;19909;-72
2021/06/12 00:49:32;;;;;;;;;;;14.90;99.90;;;;;;5074029;28;19920;-71
2021/06/12 00:51:58;;;;;;;;;;;14.80;99.90;;;;;;5074294;28;19909;-71
2021/06/12 00:54:23;;;;;;;;;;;14.70;99.90;;;;;;5076445;28;19909;-71
2021/06/12 00:56:49;;;;;;;;;;;14.70;99.90;;;;;;5076560;28;20656;-71
2021/06/12 00:59:14;;;;;;;;;;;14.70;99.90;;;;;;5074267;28;19992;-71
2021/06/12 01:01:40;;;;;;;;;;;14.60;99.90;;;;;;5074020;28;19944;-70
2021/06/12 01:04:06;;;;;;;;;;;14.70;99.90;;;;;;5088271;28;19912;-72
2021/06/12 01:06:31;;;;;;;;;;;14.70;99.90;;;;;;5076235;28;19960;-71
2021/06/12 01:08:57;;;;;;;;;;;14.80;99.90;;;;;;5077615;28;20503;-71
2021/06/12 01:11:22;;;;;;;;;;;14.80;99.90;;;;;;5075450;28;19912;-71
2021/06/12 01:13:57;;;;;;;;;;;14.90;99.90;;;;;;5088499;28;19919;-72
2021/06/12 01:16:26;;;;;;;;;;;14.90;99.90;;;;;;5090078;28;19919;-70
2021/06/12 01:18:52;;;;;;;;;;;14.90;99.90;;;;;;5088730;28;19916;-71
2021/06/12 01:21:29;;;;;;;;;;;14.90;99.90;;;;;;5089508;28;19919;-72
2021/06/12 01:24:13;;;;;;;;;;;15.00;99.90;;;;;;5078609;28;19919;-71
2021/06/12 01:26:47;;;;;;;;;;;15.00;99.90;;;;;;5083863;28;19915;-72
2021/06/12 01:29:27;;;;;;;;;;;14.90;99.90;;;;;;5071666;28;19970;-71
2021/06/12 01:31:54;;;;;;;;;;;14.80;99.90;;;;;;5080774;28;20033;-72
2021/06/12 01:34:20;;;;;;;;;;;14.90;99.90;;;;;;5082165;28;19937;-71
2021/06/12 01:36:46;;;;;;;;;;;14.90;99.90;;;;;;5092789;28;19908;-71
2021/06/12 01:39:12;;;;;;;;;;;14.90;99.90;;;;;;5078306;28;19912;-72
2021/06/12 01:41:38;;;;;;;;;;;14.90;99.90;;;;;;5073186;28;19928;-71
2021/06/12 01:44:05;;;;;;;;;;;14.90;99.90;;;;;;5073325;28;19915;-71
2021/06/12 01:46:30;;;;;;;;;;;14.90;99.90;;;;;;5072449;28;19909;-72
2021/06/12 01:48:58;;;;;;;;;;;14.80;99.90;;;;;;5073129;28;19916;-71
2021/06/12 01:51:24;;;;;;;;;;;14.80;99.90;;;;;;5086454;28;20700;-72
2021/06/12 01:53:54;;;;;;;;;;;14.80;99.90;;;;;;5084624;28;20377;-71
2021/06/12 01:56:19;;;;;;;;;;;14.80;99.90;;;;;;5090369;28;19908;-71
2021/06/12 01:58:45;;;;;;;;;;;14.80;99.90;;;;;;5072933;28;19915;-71
2021/06/12 02:01:15;;;;;;;;;;;14.80;99.90;;;;;;5081239;28;19939;-71
2021/06/12 02:03:41;;;;;;;;;;;14.70;99.90;;;;;;5073979;28;19999;-71
2021/06/12 02:06:10;;;;;;;;;;;14.70;99.90;;;;;;5087084;28;19912;-71
2021/06/12 02:08:35;;;;;;;;;;;14.70;99.90;;;;;;5092447;28;19934;-71
2021/06/12 02:11:01;;;;;;;;;;;14.70;99.90;;;;;;5092875;28;19916;-71
2021/06/12 02:13:26;;;;;;;;;;;14.70;99.90;;;;;;5091060;28;19916;-71
2021/06/12 02:15:54;;;;;;;;;;;14.70;99.90;;;;;;5081391;28;19967;-71
2021/06/12 02:18:19;;;;;;;;;;;14.70;99.90;;;;;;5092381;28;20003;-71
2021/06/12 02:20:47;;;;;;;;;;;14.70;99.90;;;;;;5090732;28;20007;-71
2021/06/12 02:23:13;;;;;;;;;;;14.60;99.90;;;;;;5083164;28;19915;-71
2021/06/12 02:25:40;;;;;;;;;;;14.60;99.90;;;;;;5084473;28;19912;-71
2021/06/12 02:28:07;;;;;;;;;;;14.40;99.90;;;;;;5076074;28;20003;-71
2021/06/12 02:30:36;;;;;;;;;;;14.50;99.90;;;;;;5082464;28;19920;-71
2021/06/12 02:33:03;;;;;;;;;;;14.50;99.90;;;;;;5087902;28;20104;-71
2021/06/12 02:35:28;;;;;;;;;;;14.50;99.90;;;;;;5082736;28;19962;-71
2021/06/12 02:37:54;;;;;;;;;;;14.40;99.90;;;;;;5082686;28;19943;-71
2021/06/12 02:40:20;;;;;;;;;;;14.50;99.90;;;;;;5072276;28;20007;-71
2021/06/12 02:42:45;;;;;;;;;;;14.50;99.90;;;;;;5073123;28;19912;-71
2021/06/12 02:45:11;;;;;;;;;;;14.50;99.90;;;;;;5077299;28;19919;-71
2021/06/12 02:47:40;;;;;;;;;;;14.50;99.90;;;;;;5075447;28;19912;-71
2021/06/12 02:50:07;;;;;;;;;;;14.50;99.90;;;;;;5071883;28;19915;-71
2021/06/12 02:52:33;;;;;;;;;;;14.50;99.90;;;;;;5076589;28;19912;-71
2021/06/12 02:55:05;;;;;;;;;;;14.50;99.90;;;;;;5086493;28;19908;-71
2021/06/12 02:57:31;;;;;;;;;;;14.50;99.90;;;;;;5090914;28;19989;-71
2021/06/12 02:59:57;;;;;;;;;;;14.50;99.90;;;;;;5091849;28;19908;-71
2021/06/12 03:02:23;;;;;;;;;;;14.50;99.90;;;;;;5091716;28;19931;-70
2021/06/12 03:04:50;;;;;;;;;;;14.50;99.90;;;;;;5091503;28;19908;-71
2021/06/12 03:07:16;;;;;;;;;;;14.50;99.90;;;;;;5090777;28;19909;-71
2021/06/12 03:09:43;;;;;;;;;;;14.40;99.90;;;;;;5088445;28;19962;-71
2021/06/12 03:12:10;;;;;;;;;;;14.40;99.90;;;;;;5071564;28;19912;-71
2021/06/12 03:14:36;;;;;;;;;;;14.40;99.90;;;;;;5071189;28;19974;-71
2021/06/12 03:17:02;;;;;;;;;;;14.40;99.90;;;;;;5071626;28;20378;-71
2021/06/12 03:19:28;;;;;;;;;;;14.40;99.90;;;;;;5071113;28;19908;-71
2021/06/12 03:21:53;;;;;;;;;;;14.40;99.90;;;;;;5073216;28;19939;-71
2021/06/12 03:24:19;;;;;;;;;;;14.40;99.90;;;;;;5083865;28;20002;-70
2021/06/12 03:26:45;;;;;;;;;;;14.30;99.90;;;;;;5089415;28;19912;-71
2021/06/12 03:29:11;;;;;;;;;;;14.30;99.90;;;;;;5091611;28;19908;-71
2021/06/12 03:31:37;;;;;;;;;;;14.30;99.90;;;;;;5088081;28;19995;-71
2021/06/12 03:34:03;;;;;;;;;;;14.30;99.90;;;;;;5076195;28;20276;-71
2021/06/12 03:36:29;;;;;;;;;;;14.30;99.90;;;;;;5072520;28;19920;-71
2021/06/12 03:38:54;;;;;;;;;;;14.30;99.90;;;;;;5087557;28;20000;-71
2021/06/12 03:41:21;;;;;;;;;;;14.30;99.90;;;;;;5089700;28;19920;-71
2021/06/12 03:43:47;;;;;;;;;;;14.20;99.90;;;;;;5071248;28;19919;-71
2021/06/12 03:46:14;;;;;;;;;;;14.20;99.90;;;;;;5071014;28;20280;-71
2021/06/12 03:48:40;;;;;;;;;;;14.20;99.90;;;;;;5085949;28;20019;-71
2021/06/12 03:51:08;;;;;;;;;;;14.20;99.90;;;;;;5075311;28;19913;-71
2021/06/12 03:53:43;;;;;;;;;;;14.20;99.90;;;;;;5085566;28;20338;-71
2021/06/12 03:56:09;;;;;;;;;;;14.10;99.90;;;;;;5094402;28;20284;-71
2021/06/12 03:58:35;;;;;;;;;;;13.90;99.90;;;;;;5085534;28;19909;-71
2021/06/12 04:01:00;;;;;;;;;;;13.90;99.90;;;;;;5088439;28;19924;-70
2021/06/12 04:03:26;;;;;;;;;;;14.00;99.90;;;;;;5076281;28;19916;-71
2021/06/12 04:05:51;;;;;;;;;;;13.90;99.90;;;;;;5091900;28;19921;-71
2021/06/12 04:08:17;;;;;;;;;;;13.90;99.90;;;;;;5083574;28;19916;-71
2021/06/12 04:10:42;;;;;;;;;;;13.90;99.90;;;;;;5094936;28;19915;-71
2021/06/12 04:13:08;;;;;;;;;;;13.90;99.90;;;;;;5078167;28;19930;-71
2021/06/12 04:15:33;;;;;;;;;;;13.90;99.90;;;;;;5074403;28;19913;-70
2021/06/12 04:18:08;;;;;;;;;;;14.00;99.90;;;;;;5085415;28;19908;-71
2021/06/12 04:20:34;;;;;;;;;;;14.10;99.90;;;;;;5075698;28;19922;-71
2021/06/12 04:23:00;;;;;;;;;;;14.20;99.90;;;;;;5088602;28;20362;-70
2021/06/12 04:25:25;;;;;;;;;;;14.20;99.90;;;;;;5093587;28;19964;-70
2021/06/12 04:27:51;;;;;;;;;;;14.30;99.90;;;;;;5093358;28;19908;-70
2021/06/12 04:30:19;;;;;;;;;;;14.40;99.90;;;;;;5078918;28;19986;-71
2021/06/12 04:32:45;;;;;;;;;;;14.40;99.90;;;;;;5080191;28;19972;-71
2021/06/12 04:35:11;;;;;;;;;;;14.40;99.90;;;;;;5074381;28;19908;-71
2021/06/12 04:37:36;;;;;;;;;;;14.40;99.90;;;;;;5075570;28;20388;-71
2021/06/12 04:40:02;;;;;;;;;;;14.50;99.90;;;;;;5080409;28;19965;-71
2021/06/12 04:42:28;;;;;;;;;;;14.60;99.90;;;;;;5094048;28;20020;-70
2021/06/12 04:44:53;;;;;;;;;;;14.60;99.90;;;;;;5092408;28;20380;-70
2021/06/12 04:47:19;;;;;;;;;;;14.70;99.90;;;;;;5093020;28;19919;-71
2021/06/12 04:49:45;;;;;;;;;;;14.80;99.90;;;;;;5082396;28;19913;-70
2021/06/12 04:52:10;;;;;;;;;;;14.90;99.90;;;;;;5074861;28;20286;-70
2021/06/12 04:54:36;;;;;;;;;;;15.00;99.90;;;;;;5084730;28;19919;-71
2021/06/12 04:57:02;;;;;;;;;;;15.10;99.90;;;;;;5088086;28;19955;-70
2021/06/12 04:59:27;;;;;;;;;;;15.20;99.90;;;;;;5073580;28;19913;-71
2021/06/12 05:01:53;;;;;;;;;;;15.30;99.90;;;;;;5077292;28;19920;-71
2021/06/12 05:04:18;;;;;;;;;;;15.40;99.90;;;;;;5093538;28;20113;-71
2021/06/12 05:06:44;;;;;;;;;;;15.60;99.90;;;;;;5091044;28;19943;-71
2021/06/12 05:09:09;;;;;;;;;;;15.70;99.90;;;;;;5082839;28;19912;-71
2021/06/12 05:11:35;;;;;;;;;;;15.80;99.90;;;;;;5074876;28;20012;-70
2021/06/12 05:14:00;;;;;;;;;;;15.80;99.90;;;;;;5073657;28;19908;-71
2021/06/12 05:16:26;;;;;;;;;;;16.00;99.90;;;;;;5072803;28;19917;-71
2021/06/12 05:18:51;;;;;;;;;;;16.10;99.90;;;;;;5074697;28;19962;-71
2021/06/12 05:21:17;;;;;;;;;;;16.30;99.90;;;;;;5090447;28;20007;-71
2021/06/12 05:23:42;;;;;;;;;;;16.40;99.90;;;;;;5088643;28;19919;-71
2021/06/12 05:26:08;;;;;;;;;;;16.50;99.90;;;;;;5091863;28;19918;-71
2021/06/12 05:28:34;;;;;;;;;;;16.60;99.90;;;;;;5093282;28;19915;-71
2021/06/12 05:31:00;;;;;;;;;;;16.70;99.90;;;;;;5080237;28;19912;-71
2021/06/12 05:33:26;;;;;;;;;;;17.00;99.90;;;;;;5089532;28;19957;-71
2021/06/12 05:35:52;;;;;;;;;;;17.20;99.90;;;;;;5090555;28;20373;-71
2021/06/12 05:38:17;;;;;;;;;;;17.50;99.90;;;;;;5074443;28;19912;-71
2021/06/12 05:40:43;;;;;;;;;;;17.70;99.90;;;;;;5084945;28;20375;-71
2021/06/12 05:43:09;;;;;;;;;;;17.80;99.90;;;;;;5073204;28;19919;-71
2021/06/12 05:45:35;;;;;;;;;;;17.80;99.90;;;;;;5074108;28;20289;-71
2021/06/12 05:48:00;;;;;;;;;;;18.10;99.90;;;;;;5072529;28;19908;-71
2021/06/12 05:50:26;;;;;;;;;;;18.40;99.90;;;;;;5076787;28;19919;-71
2021/06/12 05:52:51;;;;;;;;;;;18.60;99.90;;;;;;5088437;28;19912;-71
2021/06/12 05:55:17;;;;;;;;;;;18.80;99.90;;;;;;5080312;28;20391;-71
2021/06/12 05:57:42;;;;;;;;;;;19.00;99.90;;;;;;5092228;28;19912;-71
2021/06/12 06:00:09;;;;;;;;;;;19.10;99.90;;;;;;5092449;28;20276;-71
2021/06/12 06:02:35;;;;;;;;;;;19.20;99.90;;;;;;5088153;28;19912;-71
2021/06/12 06:05:00;;;;;;;;;;;19.30;99.90;;;;;;5077559;28;20265;-71
2021/06/12 06:07:26;;;;;;;;;;;19.60;99.90;;;;;;5075626;28;19935;-71
2021/06/12 06:09:51;;;;;;;;;;;19.90;99.90;;;;;;5071290;28;19973;-71
2021/06/12 06:12:17;;;;;;;;;;;20.20;99.90;;;;;;5073643;28;19919;-71
2021/06/12 06:14:42;;;;;;;;;;;20.50;99.90;;;;;;5077820;28;19912;-71
2021/06/12 06:17:08;;;;;;;;;;;20.60;99.90;;;;;;5091551;28;19938;-71
2021/06/12 06:19:33;;;;;;;;;;;20.80;99.90;;;;;;5092325;28;19912;-71
2021/06/12 06:21:59;;;;;;;;;;;21.00;99.90;;;;;;5092352;28;19923;-71
2021/06/12 06:24:24;;;;;;;;;;;21.20;99.90;;;;;;5083252;28;20016;-71
2021/06/12 06:26:50;;;;;;;;;;;21.50;99.90;;;;;;5084475;28;19966;-71
2021/06/12 06:29:15;;;;;;;;;;;22.00;99.90;;;;;;5092343;28;19908;-71
2021/06/12 06:31:42;;;;;;;;;;;22.20;99.90;;;;;;5089591;28;19919;-71
2021/06/12 06:34:08;;;;;;;;;;;22.70;99.90;;;;;;5085501;28;19919;-71
2021/06/12 06:36:33;;;;;;;;;;;23.20;99.90;;;;;;5080233;28;19912;-71
2021/06/12 06:38:59;;;;;;;;;;;23.50;99.90;;;;;;5090484;28;19919;-71
2021/06/12 06:41:24;;;;;;;;;;;23.70;99.90;;;;;;5091752;28;20381;-71
2021/06/12 06:43:50;;;;;;;;;;;24.00;99.90;;;;;;5083367;28;19913;-71
2021/06/12 06:46:15;;;;;;;;;;;24.30;99.90;;;;;;5081524;28;19959;-71
2021/06/12 06:48:41;;;;;;;;;;;24.70;99.90;;;;;;5083112;28;20373;-71
2021/06/12 06:51:06;;;;;;;;;;;25.30;99.90;;;;;;5071920;28;20026;-71
2021/06/12 06:53:35;;;;;;;;;;;25.40;99.90;;;;;;5074234;28;19945;-71
2021/06/12 06:56:01;;;;;;;;;;;25.70;99.90;;;;;;5090630;28;19908;-71
2021/06/12 06:58:27;;;;;;;;;;;26.00;99.90;;;;;;5087155;28;19919;-71
2021/06/12 07:00:53;;;;;;;;;;;26.50;99.90;;;;;;5085614;28;20301;-71
2021/06/12 07:03:18;;;;;;;;;;;27.00;99.90;;;;;;5085600;28;19912;-71
2021/06/12 07:05:44;;;;;;;;;;;27.40;99.90;;;;;;5090343;28;20402;-71
2021/06/12 07:08:09;;;;;;;;;;;27.80;99.90;;;;;;5079060;28;20437;-71
2021/06/12 07:10:35;;;;;;;;;;;28.40;99.90;;;;;;5071253;28;19913;-71
2021/06/12 07:13:01;;;;;;;;;;;29.00;98.80;;;;;;5071339;28;19908;-71
2021/06/12 07:15:26;;;;;;;;;;;29.30;98.80;;;;;;5072496;28;19913;-71
2021/06/12 07:17:53;;;;;;;;;;;29.40;98.00;;;;;;5084407;28;19938;-71
2021/06/12 07:20:18;;;;;;;;;;;29.20;97.50;;;;;;5091408;28;19908;-71
2021/06/12 07:22:44;;;;;;;;;;;29.10;97.30;;;;;;5081997;28;19919;-71
2021/06/12 07:25:10;;;;;;;;;;;28.90;96.60;;;;;;5102957;28;19908;-71
2021/06/12 07:27:35;;;;;;;;;;;29.10;97.10;;;;;;5104739;28;19920;-71
2021/06/12 07:30:02;;;;;;;;;;;29.30;96.40;;;;;;5082536;28;19912;-71
2021/06/12 07:32:27;;;;;;;;;;;29.50;96.00;;;;;;5084984;28;19920;-71
2021/06/12 07:34:53;;;;;;;;;;;29.70;96.80;;;;;;5084072;28;19912;-72
2021/06/12 07:37:18;;;;;;;;;;;29.90;94.90;;;;;;5075793;28;20345;-71
2021/06/12 07:39:44;;;;;;;;;;;30.10;95.80;;;;;;5090582;28;19912;-71
2021/06/12 07:42:11;;;;;;;;;;;30.00;94.50;;;;;;5077305;28;21357;-72
2021/06/12 07:44:36;;;;;;;;;;;30.00;95.10;;;;;;5077616;28;19913;-72
2021/06/12 07:47:02;;;;;;;;;;;30.00;94.90;;;;;;5071395;28;19949;-72
2021/06/12 07:49:27;;;;;;;;;;;29.80;94.50;;;;;;5077338;28;19912;-72
2021/06/12 07:51:53;;;;;;;;;;;29.90;94.80;;;;;;5091217;28;20388;-71
2021/06/12 07:54:19;;;;;;;;;;;30.00;94.10;;;;;;5082730;28;20006;-71
2021/06/12 07:56:45;;;;;;;;;;;30.00;93.60;;;;;;5086148;28;20365;-72
2021/06/12 07:59:10;;;;;;;;;;;30.00;93.90;;;;;;5072162;28;19912;-72
2021/06/12 08:01:36;;;;;;;;;;;29.70;93.30;;;;;;5085393;28;19926;-72
2021/06/12 08:04:01;;;;;;;;;;;29.70;94.50;;;;;;5089333;28;19916;-72
2021/06/12 08:06:28;;;;;;;;;;;29.90;95.40;;;;;;5090364;28;19908;-72
2021/06/12 08:08:53;;;;;;;;;;;30.00;95.20;;;;;;5081089;28;19908;-72
2021/06/12 08:11:19;;;;;;;;;;;30.40;94.30;;;;;;5070813;28;19916;-73
2021/06/12 08:13:44;;;;;;;;;;;30.60;93.40;;;;;;5070827;28;19909;-72
2021/06/12 08:16:10;;;;;;;;;;;30.80;90.90;;;;;;5073443;28;19957;-71
2021/06/12 08:18:35;;;;;;;;;;;30.30;92.50;;;;;;5074948;28;19916;-72
2021/06/12 08:21:01;;;;;;;;;;;30.30;92.40;;;;;;5070930;28;20393;-72
2021/06/12 08:23:26;;;;;;;;;;;30.30;92.30;;;;;;5076852;28;19912;-72
2021/06/12 08:25:52;;;;;;;;;;;30.30;90.80;;;;;;5089494;28;19919;-72
2021/06/12 08:28:18;;;;;;;;;;;30.30;93.20;;;;;;5086540;28;19926;-72
2021/06/12 08:30:43;;;;;;;;;;;30.00;91.30;;;;;;5083500;28;20384;-72
2021/06/12 08:33:09;;;;;;;;;;;29.90;93.00;;;;;;5083515;28;19970;-72
2021/06/12 08:35:35;;;;;;;;;;;29.90;92.50;;;;;;5094197;28;19938;-72
2021/06/12 08:38:01;;;;;;;;;;;30.20;92.40;;;;;;5075820;28;20419;-72
2021/06/12 08:40:28;;;;;;;;;;;30.20;90.90;;;;;;5073741;28;19926;-72
2021/06/12 08:42:53;;;;;;;;;;;30.20;91.60;;;;;;5074185;28;19908;-72
2021/06/12 08:45:20;;;;;;;;;;;30.30;91.50;;;;;;5112866;28;19915;-72
2021/06/12 08:47:46;;;;;;;;;;;30.50;92.60;;;;;;5112713;28;19908;-72
2021/06/12 08:50:12;;;;;;;;;;;30.70;90.90;;;;;;5096462;28;19943;-71
2021/06/12 08:52:38;;;;;;;;;;;30.70;89.80;;;;;;5091069;28;20356;-71
2021/06/12 08:55:05;;;;;;;;;;;30.40;90.60;;;;;;5088907;28;20280;-72
2021/06/12 08:57:31;;;;;;;;;;;30.00;91.60;;;;;;5093427;28;19908;-72
2021/06/12 08:59:57;;;;;;;;;;;30.00;90.30;;;;;;5093965;28;19908;-72
2021/06/12 09:02:22;;;;;;;;;;;29.90;88.40;;;;;;5094130;28;19918;-72
2021/06/12 09:04:53;;;;;;;;;;;29.80;89.60;;;;;;5094140;28;20439;-72
2021/06/12 09:07:23;;;;;;;;;;;29.40;85.30;;;;;;5093247;28;20341;-72
2021/06/12 09:09:52;;;;;;;;;;;28.80;88.90;;;;;;5093740;28;19908;-72
2021/06/12 09:12:18;;;;;;;;;;;28.40;90.20;;;;;;5092701;28;20371;-72
2021/06/12 09:15:03;;;;;;;;;;;28.10;89.30;;;;;;5093841;28;19908;-71
2021/06/12 09:17:39;;;;;;;;;;;27.70;89.00;;;;;;5092735;28;19908;-72
2021/06/12 09:20:07;;;;;;;;;;;27.50;89.00;;;;;;5073414;28;19919;-72
2021/06/12 09:22:33;;;;;;;;;;;27.40;90.40;;;;;;5081215;28;19921;-71
2021/06/12 09:24:58;;;;;;;;;;;27.50;91.40;;;;;;5091394;28;20273;-72
2021/06/12 09:27:24;;;;;;;;;;;27.70;93.00;;;;;;5092758;28;20280;-71
2021/06/12 09:29:50;;;;;;;;;;;28.10;89.20;;;;;;5093541;28;19908;-72
2021/06/12 09:32:18;;;;;;;;;;;28.10;89.30;;;;;;5087196;28;19913;-72
2021/06/12 09:34:44;;;;;;;;;;;28.00;89.40;;;;;;5083046;28;19916;-72
2021/06/12 09:37:14;;;;;;;;;;;27.90;88.60;;;;;;5072415;28;19909;-72
2021/06/12 09:39:40;;;;;;;;;;;28.00;88.10;;;;;;5073090;28;19913;-72
2021/06/12 09:42:06;;;;;;;;;;;28.20;88.30;;;;;;5085090;28;19999;-72
2021/06/12 09:44:36;;;;;;;;;;;28.70;92.90;;;;;;5072762;28;19912;-72
2021/06/12 09:47:03;;;;;;;;;;;29.40;90.50;;;;;;5082795;28;19925;-72
2021/06/12 09:49:36;;;;;;;;;;;29.60;86.60;;;;;;5096342;28;20006;-71
2021/06/12 09:52:09;;;;;;;;;;;29.30;83.20;;;;;;5109205;28;19934;-72
2021/06/12 09:54:37;;;;;;;;;;;29.00;84.40;;;;;;5096728;28;19908;-72
2021/06/12 09:57:03;;;;;;;;;;;29.00;84.60;;;;;;5091835;28;19912;-72
2021/06/12 09:59:36;;;;;;;;;;;28.80;86.00;;;;;;5092850;28;20003;-72
2021/06/12 10:02:02;;;;;;;;;;;28.90;86.20;;;;;;5093150;28;20285;-72
2021/06/12 10:04:27;;;;;;;;;;;28.80;90.20;;;;;;5091664;28;19909;-72
2021/06/12 10:06:53;;;;;;;;;;;28.80;83.70;;;;;;5092128;28;19908;-72
2021/06/12 10:09:21;;;;;;;;;;;28.80;84.80;;;;;;5093906;28;20425;-72
2021/06/12 10:11:47;;;;;;;;;;;28.80;83.30;;;;;;5092483;28;19919;-72
2021/06/12 10:14:13;;;;;;;;;;;28.80;84.70;;;;;;5092650;28;19908;-72
2021/06/12 10:16:40;;;;;;;;;;;28.90;88.20;;;;;;5091861;28;19958;-72
2021/06/12 10:19:06;;;;;;;;;;;29.20;85.80;;;;;;5092599;28;20436;-72
2021/06/12 10:21:31;;;;;;;;;;;29.30;81.40;;;;;;5092551;28;19912;-73
2021/06/12 10:23:57;;;;;;;;;;;29.40;87.30;;;;;;5082260;28;19909;-72
2021/06/12 10:26:23;;;;;;;;;;;29.90;86.10;;;;;;5089315;28;20004;-73
2021/06/12 10:28:48;;;;;;;;;;;30.20;86.20;;;;;;5078062;28;19916;-73
2021/06/12 10:31:15;;;;;;;;;;;30.40;86.40;;;;;;5081442;28;19912;-73
2021/06/12 10:33:42;;;;;;;;;;;30.70;89.40;;;;;;5082573;28;19908;-72
2021/06/12 10:36:09;;;;;;;;;;;31.00;82.30;;;;;;5091354;28;19908;-73
2021/06/12 10:38:34;;;;;;;;;;;31.20;81.40;;;;;;5074258;28;19952;-73
2021/06/12 10:41:12;;;;;;;;;;;30.70;83.10;;;;;;5071460;28;19960;-73
2021/06/12 10:43:38;;;;;;;;;;;30.00;82.50;;;;;;5072020;28;19916;-73
2021/06/12 10:46:04;;;;;;;;;;;29.60;83.70;;;;;;5070969;28;19908;-72
2021/06/12 10:48:38;;;;;;;;;;;29.30;85.30;;;;;;5087031;28;19975;-72
2021/06/12 10:51:04;;;;;;;;;;;29.20;85.50;;;;;;5073901;28;19973;-72
2021/06/12 10:53:37;;;;;;;;;;;29.00;84.60;;;;;;5072606;28;20007;-72
2021/06/12 10:56:07;;;;;;;;;;;28.80;86.50;;;;;;5087467;28;19935;-72
2021/06/12 10:58:32;;;;;;;;;;;28.80;84.50;;;;;;5091858;28;19912;-72
2021/06/12 11:01:18;;;;;;;;;;;28.90;83.50;;;;;;5091809;28;20254;-72
2021/06/12 11:07:05;;;;;;;;;;;29.40;84.10;;;;;;5076679;28;19991;-73
2021/06/12 11:09:29;;;;;;;;;;;29.70;86.50;;;;;;5080742;28;19913;-72
2021/06/12 11:11:56;;;;;;;;;;;30.00;85.00;;;;;;5077901;28;19912;-73
2021/06/12 11:14:24;;;;;;;;;;;30.10;83.10;;;;;;5089206;28;19920;-73
2021/06/12 11:17:08;;;;;;;;;;;30.30;84.90;;;;;;5076088;28;19945;-73
2021/06/12 11:19:34;;;;;;;;;;;30.50;78.40;;;;;;5089107;28;19920;-73
2021/06/12 11:22:18;;;;;;;;;;;30.40;79.40;;;;;;5078600;28;19924;-73
2021/06/12 11:24:44;;;;;;;;;;;30.20;80.00;;;;;;5083317;28;19915;-73
2021/06/12 11:27:21;;;;;;;;;;;30.30;83.80;;;;;;5090232;28;20026;-73
2021/06/12 11:30:05;;;;;;;;;;;30.50;78.60;;;;;;5082636;28;19916;-71
2021/06/12 11:32:31;;;;;;;;;;;30.50;79.90;;;;;;5075353;28;19954;-72
2021/06/12 11:34:56;;;;;;;;;;;30.20;78.00;;;;;;5073272;28;19912;-72
2021/06/12 11:37:23;;;;;;;;;;;30.20;82.50;;;;;;5090202;28;19919;-71
2021/06/12 11:39:51;;;;;;;;;;;30.40;76.90;;;;;;5103289;28;19912;-71
2021/06/12 11:42:16;;;;;;;;;;;30.40;79.10;;;;;;5110790;28;20391;-72
2021/06/12 11:44:42;;;;;;;;;;;30.30;82.00;;;;;;5111055;28;19912;-72
2021/06/12 11:47:07;;;;;;;;;;;30.50;82.20;;;;;;5107676;28;19934;-72
2021/06/12 11:49:33;;;;;;;;;;;30.80;83.00;;;;;;5091116;28;19912;-72
2021/06/12 11:51:58;;;;;;;;;;;31.20;76.90;;;;;;5091155;28;19912;-72
2021/06/12 11:54:31;;;;;;;;;;;31.40;78.10;;;;;;5081370;28;20379;-72
2021/06/12 11:57:03;;;;;;;;;;;31.40;78.90;;;;;;5090011;28;19908;-72
2021/06/12 11:59:30;;;;;;;;;;;31.40;77.00;;;;;;5091092;28;19999;-72
2021/06/12 12:02:05;;;;;;;;;;;31.20;75.90;;;;;;5090957;28;19912;-73
2021/06/12 12:04:34;;;;;;;;;;;30.60;73.70;;;;;;5091018;28;19912;-73
2021/06/12 12:07:00;;;;;;;;;;;30.30;78.60;;;;;;5085819;28;20353;-73
2021/06/12 12:09:27;;;;;;;;;;;29.90;79.30;;;;;;5080103;28;19916;-72
2021/06/12 12:12:04;;;;;;;;;;;29.80;75.50;;;;;;5089892;28;19916;-72
2021/06/12 12:14:34;;;;;;;;;;;29.70;75.20;;;;;;5081391;28;20684;-72
2021/06/12 12:17:00;;;;;;;;;;;29.80;73.40;;;;;;5084153;28;19947;-72
2021/06/12 12:19:26;;;;;;;;;;;29.90;74.90;;;;;;5094791;28;19931;-72
2021/06/12 12:21:53;;;;;;;;;;;30.00;73.80;;;;;;5085349;28;19912;-72
2021/06/12 12:24:18;;;;;;;;;;;29.90;73.60;;;;;;5087135;28;19985;-72
2021/06/12 12:27:02;;;;;;;;;;;29.90;75.70;;;;;;5077557;28;21914;-72
2021/06/12 12:29:29;;;;;;;;;;;30.00;78.30;;;;;;5075016;28;20385;-73
2021/06/12 12:31:56;;;;;;;;;;;30.30;72.40;;;;;;5089450;28;19912;-72
2021/06/12 12:34:41;;;;;;;;;;;30.20;71.70;;;;;;5094568;28;19951;-72
2021/06/12 12:37:07;;;;;;;;;;;29.70;75.70;;;;;;5081005;28;20365;-73
2021/06/12 12:39:37;;;;;;;;;;;29.50;74.80;;;;;;5073999;28;19955;-73
2021/06/12 12:42:03;;;;;;;;;;;29.20;74.90;;;;;;5073936;28;19912;-72
2021/06/12 12:44:28;;;;;;;;;;;29.20;75.50;;;;;;5074090;28;19962;-72
2021/06/12 12:46:54;;;;;;;;;;;29.30;79.00;;;;;;5083145;28;19947;-72
2021/06/12 12:49:27;;;;;;;;;;;29.60;75.10;;;;;;5093896;28;19918;-73
2021/06/12 12:51:57;;;;;;;;;;;29.30;75.10;;;;;;5090974;28;19927;-72
2021/06/12 12:54:23;;;;;;;;;;;28.90;73.30;;;;;;5085057;28;19942;-73
2021/06/12 12:56:50;;;;;;;;;;;28.60;77.30;;;;;;5086034;28;19990;-73
2021/06/12 12:59:25;;;;;;;;;;;28.50;76.70;;;;;;5094043;28;19962;-72
2021/06/12 13:01:51;;;;;;;;;;;28.70;81.80;;;;;;5079603;28;20016;-73
2021/06/12 13:04:24;;;;;;;;;;;28.80;77.50;;;;;;5094006;28;20383;-73
2021/06/12 13:06:50;;;;;;;;;;;29.10;73.00;;;;;;5081907;28;20281;-73
2021/06/12 13:09:17;;;;;;;;;;;28.70;73.90;;;;;;5073666;28;19915;-73
2021/06/12 13:11:44;;;;;;;;;;;28.60;73.60;;;;;;5073551;28;19957;-73
2021/06/12 13:14:10;;;;;;;;;;;28.60;75.10;;;;;;5073602;28;19932;-72
2021/06/12 13:16:35;;;;;;;;;;;28.50;76.20;;;;;;5072845;28;19971;-72
2021/06/12 13:19:13;;;;;;;;;;;28.70;78.70;;;;;;5079116;28;20457;-73
2021/06/12 13:21:49;;;;;;;;;;;28.70;78.30;;;;;;5093342;28;19916;-72
2021/06/12 13:24:15;;;;;;;;;;;28.60;73.20;;;;;;5096442;28;19952;-74
2021/06/12 13:26:41;;;;;;;;;;;28.40;76.50;;;;;;5085430;28;20389;-74
2021/06/12 13:29:24;;;;;;;;;;;28.20;76.30;;;;;;5083076;28;19991;-74
2021/06/12 13:31:50;;;;;;;;;;;28.10;77.00;;;;;;5102663;28;19919;-73
2021/06/12 13:34:41;;;;;;;;;;;28.10;76.90;;;;;;5099741;28;19916;-72
2021/06/12 13:37:07;;;;;;;;;;;28.30;76.30;;;;;;5069055;28;19909;-74
2021/06/12 13:39:35;;;;;;;;;;;28.20;78.50;;;;;;5072270;28;20360;-73
2021/06/12 13:42:05;;;;;;;;;;;28.20;77.40;;;;;;5072758;28;19912;-74
2021/06/12 13:44:30;;;;;;;;;;;28.20;78.00;;;;;;5072721;28;19912;-73
2021/06/12 13:46:56;;;;;;;;;;;28.30;78.70;;;;;;5072384;28;19904;-73
2021/06/12 13:49:21;;;;;;;;;;;28.30;79.50;;;;;;5073052;28;19931;-73
2021/06/12 13:51:47;;;;;;;;;;;28.20;76.90;;;;;;5073241;28;19908;-73
2021/06/12 13:54:12;;;;;;;;;;;28.00;77.50;;;;;;5080828;28;19912;-73
2021/06/12 13:56:41;;;;;;;;;;;28.10;76.50;;;;;;5091906;28;20369;-74
2021/06/12 13:59:07;;;;;;;;;;;28.00;77.70;;;;;;5093127;28;19931;-74
2021/06/12 14:01:32;;;;;;;;;;;28.10;79.30;;;;;;5091364;28;19920;-74
2021/06/12 14:03:58;;;;;;;;;;;28.40;78.50;;;;;;5093193;28;19908;-74
2021/06/12 14:06:23;;;;;;;;;;;28.70;74.80;;;;;;5090410;28;19912;-74
2021/06/12 14:08:49;;;;;;;;;;;28.90;76.10;;;;;;5079412;28;19938;-73
2021/06/12 14:11:14;;;;;;;;;;;29.00;73.80;;;;;;5079718;28;19915;-73
2021/06/12 14:13:40;;;;;;;;;;;29.00;75.60;;;;;;5110633;28;19915;-74
2021/06/12 14:16:05;;;;;;;;;;;29.10;74.80;;;;;;5092560;28;19915;-73
2021/06/12 14:18:32;;;;;;;;;;;29.20;73.90;;;;;;5092750;28;19915;-73